sensor_id;sensor_type;location;lat;lon;timestamp;P1;durP1;ratioP1;P2;durP2;ratioP2
25758;SDS011;13604;52.496;13.456;2023-08-06T00:00:22;13.27;;;10.82;;
25758;SDS011;13604;52.496;13.456;2023-08-06T00:02:48;13.73;;;10.55;;
25758;SDS011;13604;52.496;13.456;2023-08-06T00:05:14;10.48;;;8.60;;
25758;SDS011;13604;52.496;13.456;2023-08-06T00:07:43;11.40;;;9.50;;
25758;SDS011;13604;52.496;13.456;2023-08-06T00:10:09;13.23;;;9.70;;
25758;SDS011;13604;52.496;13.456;2023-08-06T00:12:34;11.88;;;9.80;;
25758;SDS011;13604;52.496;13.456;2023-08-06T00:14:59;11.30;;;10.00;;
25758;SDS011;13604;52.496;13.456;2023-08-06T00:17:24;12.38;;;9.63;;
25758;SDS011;13604;52.496;13.456;2023-08-06T00:19:50;12.48;;;10.05;;
25758;SDS011;13604;52.496;13.456;2023-08-06T00:22:15;11.10;;;9.88;;
25758;SDS011;13604;52.496;13.456;2023-08-06T00:24:41;11.25;;;10.02;;
25758;SDS011;13604;52.496;13.456;2023-08-06T00:27:06;10.82;;;9.70;;
25758;SDS011;13604;52.496;13.456;2023-08-06T00:29:31;11.60;;;10.07;;
25758;SDS011;13604;52.496;13.456;2023-08-06T00:31:57;13.90;;;9.65;;
25758;SDS011;13604;52.496;13.456;2023-08-06T00:34:22;13.57;;;9.45;;
25758;SDS011;13604;52.496;13.456;2023-08-06T00:36:47;11.35;;;9.45;;
25758;SDS011;13604;52.496;13.456;2023-08-06T00:39:12;10.18;;;9.18;;
25758;SDS011;13604;52.496;13.456;2023-08-06T00:41:38;11.02;;;9.70;;
25758;SDS011;13604;52.496;13.456;2023-08-06T00:44:03;13.30;;;10.27;;
25758;SDS011;13604;52.496;13.456;2023-08-06T00:46:29;10.25;;;9.00;;
25758;SDS011;13604;52.496;13.456;2023-08-06T00:48:55;10.52;;;9.40;;
25758;SDS011;13604;52.496;13.456;2023-08-06T00:51:21;11.38;;;9.32;;
25758;SDS011;13604;52.496;13.456;2023-08-06T00:53:48;12.25;;;10.95;;
25758;SDS011;13604;52.496;13.456;2023-08-06T00:56:14;15.00;;;10.55;;
25758;SDS011;13604;52.496;13.456;2023-08-06T00:58:40;10.80;;;9.68;;
25758;SDS011;13604;52.496;13.456;2023-08-06T01:01:06;12.38;;;10.25;;
25758;SDS011;13604;52.496;13.456;2023-08-06T01:03:31;12.13;;;10.43;;
25758;SDS011;13604;52.496;13.456;2023-08-06T01:05:56;12.50;;;10.15;;
25758;SDS011;13604;52.496;13.456;2023-08-06T01:14:08;11.60;;;10.15;;
25758;SDS011;13604;52.496;13.456;2023-08-06T01:16:43;12.98;;;11.00;;
25758;SDS011;13604;52.496;13.456;2023-08-06T01:19:18;11.95;;;10.68;;
25758;SDS011;13604;52.496;13.456;2023-08-06T01:21:43;10.77;;;9.68;;
25758;SDS011;13604;52.496;13.456;2023-08-06T01:24:08;11.93;;;10.63;;
25758;SDS011;13604;52.496;13.456;2023-08-06T01:26:38;13.10;;;11.50;;
25758;SDS011;13604;52.496;13.456;2023-08-06T01:29:15;11.80;;;9.90;;
25758;SDS011;13604;52.496;13.456;2023-08-06T01:31:46;13.48;;;11.25;;
25758;SDS011;13604;52.496;13.456;2023-08-06T01:34:17;13.77;;;11.68;;
25758;SDS011;13604;52.496;13.456;2023-08-06T01:36:45;13.15;;;11.13;;
25758;SDS011;13604;52.496;13.456;2023-08-06T01:39:11;12.52;;;10.52;;
25758;SDS011;13604;52.496;13.456;2023-08-06T01:41:36;16.02;;;11.10;;
25758;SDS011;13604;52.496;13.456;2023-08-06T01:44:01;20.08;;;11.75;;
25758;SDS011;13604;52.496;13.456;2023-08-06T01:46:27;13.65;;;11.93;;
25758;SDS011;13604;52.496;13.456;2023-08-06T01:48:52;16.17;;;10.93;;
25758;SDS011;13604;52.496;13.456;2023-08-06T01:51:17;15.40;;;12.02;;
25758;SDS011;13604;52.496;13.456;2023-08-06T01:53:43;13.10;;;11.55;;
25758;SDS011;13604;52.496;13.456;2023-08-06T01:56:08;14.57;;;11.40;;
25758;SDS011;13604;52.496;13.456;2023-08-06T01:58:33;12.80;;;10.93;;
25758;SDS011;13604;52.496;13.456;2023-08-06T02:00:58;15.32;;;12.60;;
25758;SDS011;13604;52.496;13.456;2023-08-06T02:03:24;12.80;;;11.27;;
25758;SDS011;13604;52.496;13.456;2023-08-06T02:05:49;15.00;;;12.88;;
25758;SDS011;13604;52.496;13.456;2023-08-06T02:08:14;14.73;;;12.98;;
25758;SDS011;13604;52.496;13.456;2023-08-06T02:10:40;12.82;;;11.52;;
25758;SDS011;13604;52.496;13.456;2023-08-06T02:13:06;15.40;;;13.50;;
25758;SDS011;13604;52.496;13.456;2023-08-06T02:15:31;16.65;;;12.88;;
25758;SDS011;13604;52.496;13.456;2023-08-06T02:17:57;15.00;;;12.82;;
25758;SDS011;13604;52.496;13.456;2023-08-06T02:20:22;19.67;;;14.32;;
25758;SDS011;13604;52.496;13.456;2023-08-06T02:22:47;18.15;;;14.48;;
25758;SDS011;13604;52.496;13.456;2023-08-06T02:25:13;16.77;;;14.63;;
25758;SDS011;13604;52.496;13.456;2023-08-06T02:27:38;17.70;;;13.88;;
25758;SDS011;13604;52.496;13.456;2023-08-06T02:30:04;14.98;;;13.25;;
25758;SDS011;13604;52.496;13.456;2023-08-06T02:32:30;18.90;;;14.57;;
25758;SDS011;13604;52.496;13.456;2023-08-06T02:34:56;15.65;;;12.48;;
25758;SDS011;13604;52.496;13.456;2023-08-06T02:37:22;14.32;;;11.90;;
25758;SDS011;13604;52.496;13.456;2023-08-06T02:39:47;14.57;;;12.10;;
25758;SDS011;13604;52.496;13.456;2023-08-06T02:42:12;13.20;;;11.75;;
25758;SDS011;13604;52.496;13.456;2023-08-06T02:44:37;14.45;;;12.50;;
25758;SDS011;13604;52.496;13.456;2023-08-06T02:47:03;13.70;;;11.27;;
25758;SDS011;13604;52.496;13.456;2023-08-06T02:49:28;12.93;;;10.93;;
25758;SDS011;13604;52.496;13.456;2023-08-06T02:51:54;14.38;;;11.43;;
25758;SDS011;13604;52.496;13.456;2023-08-06T02:54:19;11.70;;;10.52;;
25758;SDS011;13604;52.496;13.456;2023-08-06T02:56:45;13.05;;;10.07;;
25758;SDS011;13604;52.496;13.456;2023-08-06T02:59:11;14.75;;;12.18;;
25758;SDS011;13604;52.496;13.456;2023-08-06T03:01:37;13.65;;;11.63;;
25758;SDS011;13604;52.496;13.456;2023-08-06T03:04:03;15.95;;;12.90;;
25758;SDS011;13604;52.496;13.456;2023-08-06T03:06:28;17.90;;;13.63;;
25758;SDS011;13604;52.496;13.456;2023-08-06T03:08:54;17.85;;;12.02;;
25758;SDS011;13604;52.496;13.456;2023-08-06T03:11:19;13.38;;;11.82;;
25758;SDS011;13604;52.496;13.456;2023-08-06T03:13:45;17.13;;;13.07;;
25758;SDS011;13604;52.496;13.456;2023-08-06T03:16:10;13.73;;;11.55;;
25758;SDS011;13604;52.496;13.456;2023-08-06T03:18:35;14.95;;;11.85;;
25758;SDS011;13604;52.496;13.456;2023-08-06T03:21:00;16.38;;;13.48;;
25758;SDS011;13604;52.496;13.456;2023-08-06T03:23:26;12.77;;;11.10;;
25758;SDS011;13604;52.496;13.456;2023-08-06T03:25:51;14.68;;;12.20;;
25758;SDS011;13604;52.496;13.456;2023-08-06T03:28:16;15.70;;;12.20;;
25758;SDS011;13604;52.496;13.456;2023-08-06T03:30:42;15.88;;;11.98;;
25758;SDS011;13604;52.496;13.456;2023-08-06T03:33:07;13.88;;;12.13;;
25758;SDS011;13604;52.496;13.456;2023-08-06T03:35:32;15.65;;;12.32;;
25758;SDS011;13604;52.496;13.456;2023-08-06T03:37:58;12.43;;;10.88;;
25758;SDS011;13604;52.496;13.456;2023-08-06T03:40:23;12.70;;;11.40;;
25758;SDS011;13604;52.496;13.456;2023-08-06T03:42:48;13.52;;;11.15;;
25758;SDS011;13604;52.496;13.456;2023-08-06T03:45:14;14.13;;;11.43;;
25758;SDS011;13604;52.496;13.456;2023-08-06T03:47:39;13.65;;;11.50;;
25758;SDS011;13604;52.496;13.456;2023-08-06T03:50:04;12.35;;;10.98;;
25758;SDS011;13604;52.496;13.456;2023-08-06T03:52:30;13.63;;;10.93;;
25758;SDS011;13604;52.496;13.456;2023-08-06T03:54:56;13.15;;;11.57;;
25758;SDS011;13604;52.496;13.456;2023-08-06T03:57:21;13.52;;;11.65;;
25758;SDS011;13604;52.496;13.456;2023-08-06T03:59:46;11.98;;;10.77;;
25758;SDS011;13604;52.496;13.456;2023-08-06T04:02:11;12.63;;;10.75;;
25758;SDS011;13604;52.496;13.456;2023-08-06T04:04:37;15.65;;;11.77;;
25758;SDS011;13604;52.496;13.456;2023-08-06T04:07:02;16.65;;;13.60;;
25758;SDS011;13604;52.496;13.456;2023-08-06T04:09:28;14.25;;;12.13;;
25758;SDS011;13604;52.496;13.456;2023-08-06T04:11:54;15.32;;;12.43;;
25758;SDS011;13604;52.496;13.456;2023-08-06T04:14:19;13.95;;;11.48;;
25758;SDS011;13604;52.496;13.456;2023-08-06T04:16:44;14.10;;;12.43;;
25758;SDS011;13604;52.496;13.456;2023-08-06T04:19:09;12.68;;;11.38;;
25758;SDS011;13604;52.496;13.456;2023-08-06T04:21:35;16.75;;;12.18;;
25758;SDS011;13604;52.496;13.456;2023-08-06T04:24:00;16.58;;;11.88;;
25758;SDS011;13604;52.496;13.456;2023-08-06T04:26:25;14.63;;;11.32;;
25758;SDS011;13604;52.496;13.456;2023-08-06T04:28:51;15.82;;;13.10;;
25758;SDS011;13604;52.496;13.456;2023-08-06T04:31:16;13.70;;;10.88;;
25758;SDS011;13604;52.496;13.456;2023-08-06T04:33:41;13.55;;;12.13;;
25758;SDS011;13604;52.496;13.456;2023-08-06T04:36:07;13.98;;;11.90;;
25758;SDS011;13604;52.496;13.456;2023-08-06T04:38:33;12.77;;;11.38;;
25758;SDS011;13604;52.496;13.456;2023-08-06T04:40:58;12.52;;;11.23;;
25758;SDS011;13604;52.496;13.456;2023-08-06T04:43:23;13.68;;;10.85;;
25758;SDS011;13604;52.496;13.456;2023-08-06T04:45:49;11.88;;;10.68;;
25758;SDS011;13604;52.496;13.456;2023-08-06T04:48:15;14.95;;;10.85;;
25758;SDS011;13604;52.496;13.456;2023-08-06T04:50:44;12.07;;;10.77;;
25758;SDS011;13604;52.496;13.456;2023-08-06T04:53:10;12.38;;;11.00;;
25758;SDS011;13604;52.496;13.456;2023-08-06T04:55:36;11.85;;;10.45;;
25758;SDS011;13604;52.496;13.456;2023-08-06T04:58:01;11.32;;;10.07;;
25758;SDS011;13604;52.496;13.456;2023-08-06T05:00:26;13.20;;;10.35;;
25758;SDS011;13604;52.496;13.456;2023-08-06T05:02:52;11.52;;;10.32;;
25758;SDS011;13604;52.496;13.456;2023-08-06T05:05:17;11.32;;;10.20;;
25758;SDS011;13604;52.496;13.456;2023-08-06T05:07:42;11.90;;;10.23;;
25758;SDS011;13604;52.496;13.456;2023-08-06T05:10:08;11.55;;;9.95;;
25758;SDS011;13604;52.496;13.456;2023-08-06T05:12:33;12.48;;;9.80;;
25758;SDS011;13604;52.496;13.456;2023-08-06T05:14:58;11.07;;;9.68;;
25758;SDS011;13604;52.496;13.456;2023-08-06T05:17:24;10.73;;;8.63;;
25758;SDS011;13604;52.496;13.456;2023-08-06T05:19:49;9.68;;;8.25;;
25758;SDS011;13604;52.496;13.456;2023-08-06T05:22:14;10.80;;;8.70;;
25758;SDS011;13604;52.496;13.456;2023-08-06T05:24:40;9.77;;;8.75;;
25758;SDS011;13604;52.496;13.456;2023-08-06T05:27:05;10.70;;;8.98;;
25758;SDS011;13604;52.496;13.456;2023-08-06T05:29:30;10.70;;;9.18;;
25758;SDS011;13604;52.496;13.456;2023-08-06T05:31:56;9.70;;;8.68;;
25758;SDS011;13604;52.496;13.456;2023-08-06T05:34:21;10.13;;;8.05;;
25758;SDS011;13604;52.496;13.456;2023-08-06T05:36:46;8.18;;;7.38;;
25758;SDS011;13604;52.496;13.456;2023-08-06T05:39:11;8.68;;;7.25;;
25758;SDS011;13604;52.496;13.456;2023-08-06T05:41:37;9.73;;;7.97;;
25758;SDS011;13604;52.496;13.456;2023-08-06T05:44:02;7.90;;;7.07;;
25758;SDS011;13604;52.496;13.456;2023-08-06T05:46:27;10.98;;;8.35;;
25758;SDS011;13604;52.496;13.456;2023-08-06T05:48:53;8.82;;;7.93;;
25758;SDS011;13604;52.496;13.456;2023-08-06T05:51:18;9.05;;;8.05;;
25758;SDS011;13604;52.496;13.456;2023-08-06T05:53:44;9.20;;;7.95;;
25758;SDS011;13604;52.496;13.456;2023-08-06T05:56:10;12.32;;;9.27;;
25758;SDS011;13604;52.496;13.456;2023-08-06T05:58:36;10.45;;;8.50;;
25758;SDS011;13604;52.496;13.456;2023-08-06T06:01:01;8.50;;;7.68;;
25758;SDS011;13604;52.496;13.456;2023-08-06T06:03:26;9.18;;;8.02;;
25758;SDS011;13604;52.496;13.456;2023-08-06T06:05:52;8.80;;;7.90;;
25758;SDS011;13604;52.496;13.456;2023-08-06T06:08:17;8.77;;;7.88;;
25758;SDS011;13604;52.496;13.456;2023-08-06T06:10:42;7.68;;;6.97;;
25758;SDS011;13604;52.496;13.456;2023-08-06T06:13:07;8.20;;;7.40;;
25758;SDS011;13604;52.496;13.456;2023-08-06T06:15:33;7.63;;;6.93;;
25758;SDS011;13604;52.496;13.456;2023-08-06T06:17:58;9.68;;;7.32;;
25758;SDS011;13604;52.496;13.456;2023-08-06T06:20:23;7.95;;;7.15;;
25758;SDS011;13604;52.496;13.456;2023-08-06T06:22:49;7.85;;;6.85;;
25758;SDS011;13604;52.496;13.456;2023-08-06T06:25:14;8.18;;;7.03;;
25758;SDS011;13604;52.496;13.456;2023-08-06T06:27:39;8.07;;;6.75;;
25758;SDS011;13604;52.496;13.456;2023-08-06T06:30:05;8.93;;;7.35;;
25758;SDS011;13604;52.496;13.456;2023-08-06T06:32:31;9.20;;;8.23;;
25758;SDS011;13604;52.496;13.456;2023-08-06T06:34:56;13.88;;;10.20;;
25758;SDS011;13604;52.496;13.456;2023-08-06T06:37:21;10.13;;;8.93;;
25758;SDS011;13604;52.496;13.456;2023-08-06T06:39:47;10.00;;;8.60;;
25758;SDS011;13604;52.496;13.456;2023-08-06T06:42:12;8.63;;;7.03;;
25758;SDS011;13604;52.496;13.456;2023-08-06T06:44:37;9.38;;;8.48;;
25758;SDS011;13604;52.496;13.456;2023-08-06T06:47:02;10.45;;;9.18;;
25758;SDS011;13604;52.496;13.456;2023-08-06T06:49:28;9.77;;;8.75;;
25758;SDS011;13604;52.496;13.456;2023-08-06T06:51:53;7.70;;;7.00;;
25758;SDS011;13604;52.496;13.456;2023-08-06T06:54:18;8.93;;;8.00;;
25758;SDS011;13604;52.496;13.456;2023-08-06T06:56:44;9.70;;;7.60;;
25758;SDS011;13604;52.496;13.456;2023-08-06T06:59:09;9.20;;;7.95;;
25758;SDS011;13604;52.496;13.456;2023-08-06T07:01:34;8.20;;;7.40;;
25758;SDS011;13604;52.496;13.456;2023-08-06T07:04:00;10.05;;;8.38;;
25758;SDS011;13604;52.496;13.456;2023-08-06T07:06:29;11.00;;;9.13;;
25758;SDS011;13604;52.496;13.456;2023-08-06T07:08:54;8.80;;;7.70;;
25758;SDS011;13604;52.496;13.456;2023-08-06T07:11:20;8.57;;;7.65;;
25758;SDS011;13604;52.496;13.456;2023-08-06T07:13:45;10.10;;;8.23;;
25758;SDS011;13604;52.496;13.456;2023-08-06T07:16:10;10.15;;;9.05;;
25758;SDS011;13604;52.496;13.456;2023-08-06T07:18:36;8.23;;;7.43;;
25758;SDS011;13604;52.496;13.456;2023-08-06T07:21:01;8.68;;;7.78;;
25758;SDS011;13604;52.496;13.456;2023-08-06T07:23:27;8.05;;;7.25;;
25758;SDS011;13604;52.496;13.456;2023-08-06T07:25:52;8.45;;;7.10;;
25758;SDS011;13604;52.496;13.456;2023-08-06T07:28:17;9.38;;;8.00;;
25758;SDS011;13604;52.496;13.456;2023-08-06T07:30:44;9.90;;;8.43;;
25758;SDS011;13604;52.496;13.456;2023-08-06T07:33:10;12.77;;;9.95;;
25758;SDS011;13604;52.496;13.456;2023-08-06T07:35:36;9.73;;;7.63;;
25758;SDS011;13604;52.496;13.456;2023-08-06T07:38:01;10.68;;;9.57;;
25758;SDS011;13604;52.496;13.456;2023-08-06T07:40:27;8.75;;;7.85;;
25758;SDS011;13604;52.496;13.456;2023-08-06T07:42:53;10.35;;;8.20;;
25758;SDS011;13604;52.496;13.456;2023-08-06T07:45:18;8.88;;;7.95;;
25758;SDS011;13604;52.496;13.456;2023-08-06T07:47:44;8.68;;;7.78;;
25758;SDS011;13604;52.496;13.456;2023-08-06T07:50:09;8.23;;;7.43;;
25758;SDS011;13604;52.496;13.456;2023-08-06T07:52:35;7.38;;;6.68;;
25758;SDS011;13604;52.496;13.456;2023-08-06T07:55:00;9.27;;;7.22;;
25758;SDS011;13604;52.496;13.456;2023-08-06T07:57:29;7.63;;;6.80;;
25758;SDS011;13604;52.496;13.456;2023-08-06T07:59:55;7.53;;;6.38;;
25758;SDS011;13604;52.496;13.456;2023-08-06T08:02:20;7.68;;;6.97;;
25758;SDS011;13604;52.496;13.456;2023-08-06T08:04:45;7.45;;;6.75;;
25758;SDS011;13604;52.496;13.456;2023-08-06T08:07:12;8.45;;;7.15;;
25758;SDS011;13604;52.496;13.456;2023-08-06T08:09:38;7.78;;;7.05;;
25758;SDS011;13604;52.496;13.456;2023-08-06T08:12:03;9.70;;;8.30;;
25758;SDS011;13604;52.496;13.456;2023-08-06T08:14:28;9.05;;;7.28;;
25758;SDS011;13604;52.496;13.456;2023-08-06T08:16:54;8.63;;;7.40;;
25758;SDS011;13604;52.496;13.456;2023-08-06T08:19:20;8.52;;;7.60;;
25758;SDS011;13604;52.496;13.456;2023-08-06T08:21:46;10.73;;;8.23;;
25758;SDS011;13604;52.496;13.456;2023-08-06T08:24:11;10.23;;;8.15;;
25758;SDS011;13604;52.496;13.456;2023-08-06T08:26:36;8.55;;;7.45;;
25758;SDS011;13604;52.496;13.456;2023-08-06T08:29:02;8.88;;;7.35;;
25758;SDS011;13604;52.496;13.456;2023-08-06T08:31:27;7.60;;;6.78;;
25758;SDS011;13604;52.496;13.456;2023-08-06T08:33:53;7.32;;;6.65;;
25758;SDS011;13604;52.496;13.456;2023-08-06T08:36:19;7.13;;;6.43;;
25758;SDS011;13604;52.496;13.456;2023-08-06T08:38:44;7.13;;;6.43;;
25758;SDS011;13604;52.496;13.456;2023-08-06T08:41:10;8.63;;;6.97;;
25758;SDS011;13604;52.496;13.456;2023-08-06T08:43:36;12.70;;;7.90;;
25758;SDS011;13604;52.496;13.456;2023-08-06T08:46:02;8.93;;;8.00;;
25758;SDS011;13604;52.496;13.456;2023-08-06T08:48:28;10.73;;;7.60;;
25758;SDS011;13604;52.496;13.456;2023-08-06T08:50:54;10.25;;;8.38;;
25758;SDS011;13604;52.496;13.456;2023-08-06T08:53:21;9.85;;;8.68;;
25758;SDS011;13604;52.496;13.456;2023-08-06T08:55:47;9.65;;;8.48;;
25758;SDS011;13604;52.496;13.456;2023-08-06T08:58:14;10.90;;;9.20;;
25758;SDS011;13604;52.496;13.456;2023-08-06T09:00:42;9.93;;;8.85;;
25758;SDS011;13604;52.496;13.456;2023-08-06T09:03:10;10.77;;;8.75;;
25758;SDS011;13604;52.496;13.456;2023-08-06T09:05:36;10.05;;;9.00;;
25758;SDS011;13604;52.496;13.456;2023-08-06T09:08:05;8.93;;;8.02;;
25758;SDS011;13604;52.496;13.456;2023-08-06T09:10:31;9.63;;;8.65;;
25758;SDS011;13604;52.496;13.456;2023-08-06T09:12:57;10.65;;;9.60;;
25758;SDS011;13604;52.496;13.456;2023-08-06T09:15:27;14.15;;;10.73;;
25758;SDS011;13604;52.496;13.456;2023-08-06T09:17:53;12.25;;;9.82;;
25758;SDS011;13604;52.496;13.456;2023-08-06T09:20:18;12.15;;;8.95;;
25758;SDS011;13604;52.496;13.456;2023-08-06T09:22:44;10.70;;;9.18;;
25758;SDS011;13604;52.496;13.456;2023-08-06T09:25:10;12.07;;;9.95;;
25758;SDS011;13604;52.496;13.456;2023-08-06T09:27:38;12.18;;;10.75;;
25758;SDS011;13604;52.496;13.456;2023-08-06T09:30:04;12.10;;;10.70;;
25758;SDS011;13604;52.496;13.456;2023-08-06T09:32:47;10.02;;;9.02;;
25758;SDS011;13604;52.496;13.456;2023-08-06T09:35:15;11.48;;;10.07;;
25758;SDS011;13604;52.496;13.456;2023-08-06T09:37:41;11.45;;;10.23;;
25758;SDS011;13604;52.496;13.456;2023-08-06T09:40:23;12.68;;;10.93;;
25758;SDS011;13604;52.496;13.456;2023-08-06T09:42:49;11.88;;;10.63;;
25758;SDS011;13604;52.496;13.456;2023-08-06T09:45:15;11.23;;;9.38;;
25758;SDS011;13604;52.496;13.456;2023-08-06T09:47:41;10.32;;;9.23;;
25758;SDS011;13604;52.496;13.456;2023-08-06T09:50:06;10.80;;;9.70;;
25758;SDS011;13604;52.496;13.456;2023-08-06T09:52:40;11.18;;;9.90;;
25758;SDS011;13604;52.496;13.456;2023-08-06T09:55:07;11.38;;;9.77;;
25758;SDS011;13604;52.496;13.456;2023-08-06T09:57:33;13.60;;;10.27;;
25758;SDS011;13604;52.496;13.456;2023-08-06T09:59:58;11.75;;;9.48;;
25758;SDS011;13604;52.496;13.456;2023-08-06T10:02:24;9.88;;;8.75;;
25758;SDS011;13604;52.496;13.456;2023-08-06T10:04:51;8.15;;;7.05;;
25758;SDS011;13604;52.496;13.456;2023-08-06T10:07:18;7.13;;;6.07;;
25758;SDS011;13604;52.496;13.456;2023-08-06T10:09:43;6.07;;;5.47;;
25758;SDS011;13604;52.496;13.456;2023-08-06T10:12:09;7.35;;;6.07;;
25758;SDS011;13604;52.496;13.456;2023-08-06T10:14:35;6.10;;;5.32;;
25758;SDS011;13604;52.496;13.456;2023-08-06T10:17:02;5.22;;;4.72;;
25758;SDS011;13604;52.496;13.456;2023-08-06T10:19:28;5.40;;;4.72;;
25758;SDS011;13604;52.496;13.456;2023-08-06T10:22:14;4.40;;;3.97;;
25758;SDS011;13604;52.496;13.456;2023-08-06T10:24:45;3.90;;;3.60;;
25758;SDS011;13604;52.496;13.456;2023-08-06T10:27:11;4.03;;;3.65;;
25758;SDS011;13604;52.496;13.456;2023-08-06T10:29:37;4.97;;;3.78;;
25758;SDS011;13604;52.496;13.456;2023-08-06T10:32:03;4.88;;;4.25;;
25758;SDS011;13604;52.496;13.456;2023-08-06T10:37:24;5.05;;;4.55;;
25758;SDS011;13604;52.496;13.456;2023-08-06T10:39:59;5.13;;;4.63;;
25758;SDS011;13604;52.496;13.456;2023-08-06T10:42:26;5.97;;;4.68;;
25758;SDS011;13604;52.496;13.456;2023-08-06T10:47:38;5.00;;;4.50;;
25758;SDS011;13604;52.496;13.456;2023-08-06T10:50:15;4.75;;;4.28;;
25758;SDS011;13604;52.496;13.456;2023-08-06T10:52:43;5.20;;;4.70;;
25758;SDS011;13604;52.496;13.456;2023-08-06T10:55:12;4.88;;;4.47;;
25758;SDS011;13604;52.496;13.456;2023-08-06T10:57:38;5.07;;;4.68;;
25758;SDS011;13604;52.496;13.456;2023-08-06T11:00:06;4.57;;;4.10;;
25758;SDS011;13604;52.496;13.456;2023-08-06T11:02:36;4.53;;;3.90;;
25758;SDS011;13604;52.496;13.456;2023-08-06T11:05:08;5.70;;;3.95;;
25758;SDS011;13604;52.496;13.456;2023-08-06T11:07:35;5.80;;;4.63;;
25758;SDS011;13604;52.496;13.456;2023-08-06T11:10:02;5.53;;;4.53;;
25758;SDS011;13604;52.496;13.456;2023-08-06T11:12:28;5.15;;;4.65;;
25758;SDS011;13604;52.496;13.456;2023-08-06T11:14:53;4.40;;;4.00;;
25758;SDS011;13604;52.496;13.456;2023-08-06T11:17:18;5.70;;;4.43;;
25758;SDS011;13604;52.496;13.456;2023-08-06T11:19:44;5.03;;;4.10;;
25758;SDS011;13604;52.496;13.456;2023-08-06T11:22:09;6.85;;;3.97;;
25758;SDS011;13604;52.496;13.456;2023-08-06T11:24:35;4.40;;;4.00;;
25758;SDS011;13604;52.496;13.456;2023-08-06T11:27:02;4.35;;;3.95;;
25758;SDS011;13604;52.496;13.456;2023-08-06T11:29:40;5.07;;;4.18;;
25758;SDS011;13604;52.496;13.456;2023-08-06T11:32:06;5.50;;;4.65;;
25758;SDS011;13604;52.496;13.456;2023-08-06T11:34:32;5.05;;;4.40;;
25758;SDS011;13604;52.496;13.456;2023-08-06T11:36:57;4.85;;;4.20;;
25758;SDS011;13604;52.496;13.456;2023-08-06T11:39:22;6.43;;;4.50;;
25758;SDS011;13604;52.496;13.456;2023-08-06T11:41:48;5.60;;;3.92;;
25758;SDS011;13604;52.496;13.456;2023-08-06T11:44:14;4.60;;;4.18;;
25758;SDS011;13604;52.496;13.456;2023-08-06T11:46:51;4.32;;;4.03;;
25758;SDS011;13604;52.496;13.456;2023-08-06T11:49:18;6.35;;;4.68;;
25758;SDS011;13604;52.496;13.456;2023-08-06T11:51:47;5.65;;;4.60;;
25758;SDS011;13604;52.496;13.456;2023-08-06T11:54:12;5.15;;;4.60;;
25758;SDS011;13604;52.496;13.456;2023-08-06T11:56:38;6.13;;;5.50;;
25758;SDS011;13604;52.496;13.456;2023-08-06T11:59:03;7.18;;;6.47;;
25758;SDS011;13604;52.496;13.456;2023-08-06T12:01:28;6.40;;;5.80;;
25758;SDS011;13604;52.496;13.456;2023-08-06T12:03:58;7.13;;;5.97;;
25758;SDS011;13604;52.496;13.456;2023-08-06T12:06:26;7.00;;;6.13;;
25758;SDS011;13604;52.496;13.456;2023-08-06T12:08:52;7.22;;;6.40;;
25758;SDS011;13604;52.496;13.456;2023-08-06T12:11:17;7.15;;;5.72;;
25758;SDS011;13604;52.496;13.456;2023-08-06T12:13:46;6.25;;;5.65;;
25758;SDS011;13604;52.496;13.456;2023-08-06T12:16:11;7.05;;;6.03;;
25758;SDS011;13604;52.496;13.456;2023-08-06T12:18:36;6.07;;;5.47;;
25758;SDS011;13604;52.496;13.456;2023-08-06T12:21:02;8.75;;;6.38;;
25758;SDS011;13604;52.496;13.456;2023-08-06T12:23:27;7.50;;;5.65;;
25758;SDS011;13604;52.496;13.456;2023-08-06T12:25:52;7.78;;;6.30;;
25758;SDS011;13604;52.496;13.456;2023-08-06T12:28:18;7.03;;;6.30;;
25758;SDS011;13604;52.496;13.456;2023-08-06T12:30:43;7.93;;;6.93;;
25758;SDS011;13604;52.496;13.456;2023-08-06T12:33:10;7.70;;;6.88;;
25758;SDS011;13604;52.496;13.456;2023-08-06T12:35:35;8.27;;;6.85;;
25758;SDS011;13604;52.496;13.456;2023-08-06T12:38:00;8.85;;;7.90;;
25758;SDS011;13604;52.496;13.456;2023-08-06T12:40:26;8.60;;;7.70;;
25758;SDS011;13604;52.496;13.456;2023-08-06T12:42:51;11.35;;;7.07;;
25758;SDS011;13604;52.496;13.456;2023-08-06T12:45:16;10.32;;;7.50;;
25758;SDS011;13604;52.496;13.456;2023-08-06T12:47:42;9.18;;;8.18;;
25758;SDS011;13604;52.496;13.456;2023-08-06T12:50:07;9.60;;;8.60;;
25758;SDS011;13604;52.496;13.456;2023-08-06T12:52:33;12.30;;;9.45;;
25758;SDS011;13604;52.496;13.456;2023-08-06T12:54:58;10.25;;;9.13;;
25758;SDS011;13604;52.496;13.456;2023-08-06T12:57:23;12.10;;;10.63;;
25758;SDS011;13604;52.496;13.456;2023-08-06T12:59:49;10.70;;;9.30;;
25758;SDS011;13604;52.496;13.456;2023-08-06T13:02:14;12.73;;;10.48;;
25758;SDS011;13604;52.496;13.456;2023-08-06T13:04:39;14.35;;;10.70;;
25758;SDS011;13604;52.496;13.456;2023-08-06T13:07:05;12.32;;;11.05;;
25758;SDS011;13604;52.496;13.456;2023-08-06T13:09:31;13.30;;;10.52;;
25758;SDS011;13604;52.496;13.456;2023-08-06T13:11:57;11.07;;;9.60;;
25758;SDS011;13604;52.496;13.456;2023-08-06T13:14:22;12.00;;;10.77;;
25758;SDS011;13604;52.496;13.456;2023-08-06T13:16:48;13.32;;;11.98;;
25758;SDS011;13604;52.496;13.456;2023-08-06T13:19:13;11.63;;;10.38;;
25758;SDS011;13604;52.496;13.456;2023-08-06T13:24:07;11.23;;;9.98;;
25758;SDS011;13604;52.496;13.456;2023-08-06T13:26:33;12.32;;;11.07;;
25758;SDS011;13604;52.496;13.456;2023-08-06T13:28:58;11.05;;;9.88;;
25758;SDS011;13604;52.496;13.456;2023-08-06T13:31:24;14.00;;;10.82;;
25758;SDS011;13604;52.496;13.456;2023-08-06T13:33:50;11.95;;;10.65;;
25758;SDS011;13604;52.496;13.456;2023-08-06T13:36:16;11.93;;;9.48;;
25758;SDS011;13604;52.496;13.456;2023-08-06T13:38:42;9.80;;;8.80;;
25758;SDS011;13604;52.496;13.456;2023-08-06T13:41:07;10.95;;;9.50;;
25758;SDS011;13604;52.496;13.456;2023-08-06T13:43:32;10.63;;;9.52;;
25758;SDS011;13604;52.496;13.456;2023-08-06T13:45:57;12.02;;;10.65;;
25758;SDS011;13604;52.496;13.456;2023-08-06T13:48:23;9.77;;;8.35;;
25758;SDS011;13604;52.496;13.456;2023-08-06T13:50:48;14.95;;;9.85;;
25758;SDS011;13604;52.496;13.456;2023-08-06T13:53:13;11.85;;;9.98;;
25758;SDS011;13604;52.496;13.456;2023-08-06T13:55:39;10.73;;;8.48;;
25758;SDS011;13604;52.496;13.456;2023-08-06T13:58:04;10.73;;;8.90;;
25758;SDS011;13604;52.496;13.456;2023-08-06T14:00:29;9.88;;;8.73;;
25758;SDS011;13604;52.496;13.456;2023-08-06T14:02:56;12.45;;;9.82;;
25758;SDS011;13604;52.496;13.456;2023-08-06T14:05:21;9.30;;;7.82;;
25758;SDS011;13604;52.496;13.456;2023-08-06T14:07:47;9.38;;;8.25;;
25758;SDS011;13604;52.496;13.456;2023-08-06T14:10:12;9.88;;;8.45;;
25758;SDS011;13604;52.496;13.456;2023-08-06T14:12:38;10.30;;;9.07;;
25758;SDS011;13604;52.496;13.456;2023-08-06T14:15:03;8.80;;;7.10;;
25758;SDS011;13604;52.496;13.456;2023-08-06T14:17:29;9.55;;;7.15;;
25758;SDS011;13604;52.496;13.456;2023-08-06T14:19:54;7.63;;;6.18;;
25758;SDS011;13604;52.496;13.456;2023-08-06T14:22:19;9.43;;;6.38;;
25758;SDS011;13604;52.496;13.456;2023-08-06T14:24:45;6.57;;;5.70;;
25758;SDS011;13604;52.496;13.456;2023-08-06T14:27:12;8.68;;;6.43;;
25758;SDS011;13604;52.496;13.456;2023-08-06T14:29:37;7.03;;;5.50;;